sensor_id;sensor_type;location;lat;lon;timestamp;pressure;altitude;pressure_sealevel;temperature;humidity
65190;BME280;51777;53.570;9.984;2022-10-22T00:00:46;100719.28;;;14.91;100.00
65190;BME280;51777;53.570;9.984;2022-10-22T00:03:11;100720.09;;;14.92;100.00
65190;BME280;51777;53.570;9.984;2022-10-22T00:05:37;100722.06;;;14.90;100.00
65190;BME280;51777;53.570;9.984;2022-10-22T00:08:02;100724.84;;;14.88;100.00
65190;BME280;51777;53.570;9.984;2022-10-22T00:10:27;100730.69;;;14.90;100.00
65190;BME280;51777;53.570;9.984;2022-10-22T00:12:53;100725.66;;;14.89;100.00
65190;BME280;51777;53.570;9.984;2022-10-22T00:15:19;100731.47;;;14.91;100.00
65190;BME280;51777;53.570;9.984;2022-10-22T00:17:44;100730.03;;;14.88;100.00
65190;BME280;51777;53.570;9.984;2022-10-22T00:20:10;100743.56;;;14.84;100.00
65190;BME280;51777;53.570;9.984;2022-10-22T00:22:35;100735.75;;;14.84;100.00
65190;BME280;51777;53.570;9.984;2022-10-22T00:25:00;100734.31;;;14.81;100.00
65190;BME280;51777;53.570;9.984;2022-10-22T00:27:26;100739.34;;;14.83;100.00
65190;BME280;51777;53.570;9.984;2022-10-22T00:29:51;100727.59;;;14.87;100.00
65190;BME280;51777;53.570;9.984;2022-10-22T00:32:16;100733.59;;;14.87;100.00
65190;BME280;51777;53.570;9.984;2022-10-22T00:34:42;100735.88;;;14.90;100.00
65190;BME280;51777;53.570;9.984;2022-10-22T00:37:07;100744.50;;;14.91;100.00
65190;BME280;51777;53.570;9.984;2022-10-22T00:39:33;100742.06;;;14.89;100.00
65190;BME280;51777;53.570;9.984;2022-10-22T00:41:58;100739.28;;;14.91;100.00
65190;BME280;51777;53.570;9.984;2022-10-22T00:44:59;100744.31;;;14.92;100.00
65190;BME280;51777;53.570;9.984;2022-10-22T00:47:27;100741.53;;;14.94;100.00
65190;BME280;51777;53.570;9.984;2022-10-22T00:49:56;100755.19;;;14.96;100.00
65190;BME280;51777;53.570;9.984;2022-10-22T00:52:23;100742.19;;;14.96;100.00
65190;BME280;51777;53.570;9.984;2022-10-22T00:54:49;100754.75;;;14.92;100.00
65190;BME280;51777;53.570;9.984;2022-10-22T00:57:17;100755.09;;;14.89;100.00
65190;BME280;51777;53.570;9.984;2022-10-22T00:59:44;100750.34;;;14.93;100.00
65190;BME280;51777;53.570;9.984;2022-10-22T01:02:09;100743.16;;;14.95;100.00
65190;BME280;51777;53.570;9.984;2022-10-22T01:04:35;100745.59;;;14.96;100.00
65190;BME280;51777;53.570;9.984;2022-10-22T01:07:00;100735.97;;;14.97;100.00
65190;BME280;51777;53.570;9.984;2022-10-22T01:09:41;100744.59;;;14.97;100.00
65190;BME280;51777;53.570;9.984;2022-10-22T01:19:54;100755.81;;;14.98;100.00
65190;BME280;51777;53.570;9.984;2022-10-22T01:22:27;100754.22;;;14.97;100.00
65190;BME280;51777;53.570;9.984;2022-10-22T01:25:06;100754.75;;;14.92;100.00
65190;BME280;51777;53.570;9.984;2022-10-22T01:28:03;100756.56;;;14.84;100.00
65190;BME280;51777;53.570;9.984;2022-10-22T01:30:35;100759.88;;;14.78;100.00
65190;BME280;51777;53.570;9.984;2022-10-22T01:33:05;100755.97;;;14.74;100.00
65190;BME280;51777;53.570;9.984;2022-10-22T01:35:36;100752.91;;;14.70;100.00
65190;BME280;51777;53.570;9.984;2022-10-22T01:38:06;100755.06;;;14.66;100.00
65190;BME280;51777;53.570;9.984;2022-10-22T01:40:34;100758.81;;;14.64;100.00
65190;BME280;51777;53.570;9.984;2022-10-22T01:43:05;100764.53;;;14.59;100.00
65190;BME280;51777;53.570;9.984;2022-10-22T01:45:41;100757.41;;;14.53;100.00
65190;BME280;51777;53.570;9.984;2022-10-22T01:53:43;100756.31;;;14.39;100.00
65190;BME280;51777;53.570;9.984;2022-10-22T02:04:28;100763.19;;;14.24;100.00
65190;BME280;51777;53.570;9.984;2022-10-22T02:06:58;100757.53;;;14.21;100.00
65190;BME280;51777;53.570;9.984;2022-10-22T02:09:27;100752.66;;;14.18;100.00
65190;BME280;51777;53.570;9.984;2022-10-22T02:11:54;100747.63;;;14.16;100.00
65190;BME280;51777;53.570;9.984;2022-10-22T02:14:21;100748.63;;;14.15;100.00
65190;BME280;51777;53.570;9.984;2022-10-22T02:16:49;100746.16;;;14.14;100.00
65190;BME280;51777;53.570;9.984;2022-10-22T02:19:17;100740.50;;;14.10;100.00
65190;BME280;51777;53.570;9.984;2022-10-22T02:21:44;100735.47;;;14.08;100.00
65190;BME280;51777;53.570;9.984;2022-10-22T02:24:09;100726.03;;;14.07;100.00
65190;BME280;51777;53.570;9.984;2022-10-22T02:26:44;100726.22;;;14.06;100.00
65190;BME280;51777;53.570;9.984;2022-10-22T02:29:14;100729.97;;;14.03;100.00
65190;BME280;51777;53.570;9.984;2022-10-22T02:31:45;100724.09;;;14.01;100.00
65190;BME280;51777;53.570;9.984;2022-10-22T02:34:15;100729.47;;;14.00;100.00
65190;BME280;51777;53.570;9.984;2022-10-22T02:36:43;100723.16;;;13.94;100.00
65190;BME280;51777;53.570;9.984;2022-10-22T02:39:09;100727.72;;;13.92;100.00
65190;BME280;51777;53.570;9.984;2022-10-22T02:41:36;100726.13;;;13.91;100.00
65190;BME280;51777;53.570;9.984;2022-10-22T02:44:09;100730.66;;;13.89;100.00
65190;BME280;51777;53.570;9.984;2022-10-22T02:46:36;100734.41;;;13.87;100.00
65190;BME280;51777;53.570;9.984;2022-10-22T02:49:02;100728.72;;;13.83;100.00
65190;BME280;51777;53.570;9.984;2022-10-22T02:51:27;100731.66;;;13.80;100.00
65190;BME280;51777;53.570;9.984;2022-10-22T02:53:53;100729.06;;;13.80;100.00
65190;BME280;51777;53.570;9.984;2022-10-22T02:56:18;100730.22;;;13.77;100.00
65190;BME280;51777;53.570;9.984;2022-10-22T02:58:44;100725.31;;;13.74;100.00
65190;BME280;51777;53.570;9.984;2022-10-22T03:01:09;100731.69;;;13.72;100.00
65190;BME280;51777;53.570;9.984;2022-10-22T03:03:34;100729.41;;;13.69;100.00
65190;BME280;51777;53.570;9.984;2022-10-22T03:06:00;100738.19;;;13.68;100.00
65190;BME280;51777;53.570;9.984;2022-10-22T03:08:25;100732.53;;;13.64;100.00
65190;BME280;51777;53.570;9.984;2022-10-22T03:10:50;100733.81;;;13.60;100.00
65190;BME280;51777;53.570;9.984;2022-10-22T03:13:16;100731.38;;;13.59;100.00
65190;BME280;51777;53.570;9.984;2022-10-22T03:15:41;100733.97;;;13.59;100.00
65190;BME280;51777;53.570;9.984;2022-10-22T03:18:07;100742.91;;;13.56;100.00
65190;BME280;51777;53.570;9.984;2022-10-22T03:20:32;100739.84;;;13.52;100.00
65190;BME280;51777;53.570;9.984;2022-10-22T03:22:57;100750.38;;;13.51;100.00
65190;BME280;51777;53.570;9.984;2022-10-22T03:25:24;100748.91;;;13.48;100.00
65190;BME280;51777;53.570;9.984;2022-10-22T03:27:52;100749.25;;;13.45;100.00
65190;BME280;51777;53.570;9.984;2022-10-22T03:30:18;100752.19;;;13.42;100.00
65190;BME280;51777;53.570;9.984;2022-10-22T03:32:44;100756.56;;;13.42;100.00
65190;BME280;51777;53.570;9.984;2022-10-22T03:35:10;100752.19;;;13.42;100.00
65190;BME280;51777;53.570;9.984;2022-10-22T03:37:35;100761.94;;;13.40;100.00
65190;BME280;51777;53.570;9.984;2022-10-22T03:40:02;100762.75;;;13.41;100.00
65190;BME280;51777;53.570;9.984;2022-10-22T03:42:27;100765.19;;;13.42;100.00
65190;BME280;51777;53.570;9.984;2022-10-22T03:44:53;100770.53;;;13.41;100.00
65190;BME280;51777;53.570;9.984;2022-10-22T03:47:18;100773.28;;;13.39;100.00
65190;BME280;51777;53.570;9.984;2022-10-22T03:49:44;100771.50;;;13.40;100.00
65190;BME280;51777;53.570;9.984;2022-10-22T03:52:12;100778.47;;;13.39;100.00
65190;BME280;51777;53.570;9.984;2022-10-22T03:54:38;100782.03;;;13.38;100.00
65190;BME280;51777;53.570;9.984;2022-10-22T03:57:05;100788.22;;;13.37;100.00
65190;BME280;51777;53.570;9.984;2022-10-22T03:59:48;100787.22;;;13.38;100.00
65190;BME280;51777;53.570;9.984;2022-10-22T04:02:15;100792.13;;;13.41;100.00
65190;BME280;51777;53.570;9.984;2022-10-22T04:04:41;100782.53;;;13.42;100.00
65190;BME280;51777;53.570;9.984;2022-10-22T04:07:07;100795.69;;;13.40;100.00
65190;BME280;51777;53.570;9.984;2022-10-22T04:09:33;100796.00;;;13.37;100.00
65190;BME280;51777;53.570;9.984;2022-10-22T04:11:59;100799.56;;;13.36;100.00
65190;BME280;51777;53.570;9.984;2022-10-22T04:14:24;100798.75;;;13.36;100.00
65190;BME280;51777;53.570;9.984;2022-10-22T04:16:50;100798.94;;;13.34;100.00
65190;BME280;51777;53.570;9.984;2022-10-22T04:19:15;100799.09;;;13.33;100.00
65190;BME280;51777;53.570;9.984;2022-10-22T04:21:41;100800.22;;;13.30;100.00
65190;BME280;51777;53.570;9.984;2022-10-22T04:24:07;100800.56;;;13.27;100.00
65190;BME280;51777;53.570;9.984;2022-10-22T04:26:32;100806.69;;;13.26;100.00
65190;BME280;51777;53.570;9.984;2022-10-22T04:28:57;100799.88;;;13.25;100.00
65190;BME280;51777;53.570;9.984;2022-10-22T04:31:24;100794.06;;;13.23;100.00
65190;BME280;51777;53.570;9.984;2022-10-22T04:33:54;100796.66;;;13.23;100.00
65190;BME280;51777;53.570;9.984;2022-10-22T04:36:21;100811.59;;;13.21;100.00
65190;BME280;51777;53.570;9.984;2022-10-22T04:38:50;100796.16;;;13.19;100.00
65190;BME280;51777;53.570;9.984;2022-10-22T04:41:18;100803.94;;;13.19;100.00
65190;BME280;51777;53.570;9.984;2022-10-22T04:43:45;100802.34;;;13.18;100.00
65190;BME280;51777;53.570;9.984;2022-10-22T04:46:14;100805.88;;;13.17;100.00
65190;BME280;51777;53.570;9.984;2022-10-22T04:48:41;100794.69;;;13.17;100.00
65190;BME280;51777;53.570;9.984;2022-10-22T04:51:09;100793.06;;;13.16;100.00
65190;BME280;51777;53.570;9.984;2022-10-22T04:53:35;100801.94;;;13.13;100.00
65190;BME280;51777;53.570;9.984;2022-10-22T04:56:15;100797.75;;;13.12;100.00
65190;BME280;51777;53.570;9.984;2022-10-22T04:58:43;100794.50;;;13.10;100.00
65190;BME280;51777;53.570;9.984;2022-10-22T05:01:18;100792.06;;;13.09;100.00
65190;BME280;51777;53.570;9.984;2022-10-22T05:03:44;100796.59;;;13.07;100.00
65190;BME280;51777;53.570;9.984;2022-10-22T05:06:11;100795.00;;;13.06;100.00
65190;BME280;51777;53.570;9.984;2022-10-22T05:08:37;100801.16;;;13.05;100.00
65190;BME280;51777;53.570;9.984;2022-10-22T05:11:17;100803.91;;;13.03;100.00
65190;BME280;51777;53.570;9.984;2022-10-22T05:13:43;100805.00;;;13.01;100.00
65190;BME280;51777;53.570;9.984;2022-10-22T05:16:09;100805.34;;;12.98;100.00
65190;BME280;51777;53.570;9.984;2022-10-22T05:18:36;100806.31;;;12.97;100.00
65190;BME280;51777;53.570;9.984;2022-10-22T05:21:03;100815.72;;;12.98;100.00
65190;BME280;51777;53.570;9.984;2022-10-22T05:23:30;100805.50;;;12.96;100.00
65190;BME280;51777;53.570;9.984;2022-10-22T05:25:55;100807.13;;;12.97;100.00
65190;BME280;51777;53.570;9.984;2022-10-22T05:28:21;100810.53;;;12.98;100.00
65190;BME280;51777;53.570;9.984;2022-10-22T05:30:56;100811.50;;;12.97;100.00
65190;BME280;51777;53.570;9.984;2022-10-22T05:33:22;100813.47;;;12.94;100.00
65190;BME280;51777;53.570;9.984;2022-10-22T05:35:52;100814.44;;;12.93;100.00
65190;BME280;51777;53.570;9.984;2022-10-22T05:38:17;100818.66;;;12.94;100.00
65190;BME280;51777;53.570;9.984;2022-10-22T05:40:43;100821.25;;;12.94;100.00
65190;BME280;51777;53.570;9.984;2022-10-22T05:43:09;100813.47;;;12.94;100.00
65190;BME280;51777;53.570;9.984;2022-10-22T05:45:38;100814.09;;;12.97;100.00
65190;BME280;51777;53.570;9.984;2022-10-22T05:48:04;100822.88;;;12.96;100.00
65190;BME280;51777;53.570;9.984;2022-10-22T05:50:31;100824.47;;;12.97;100.00
65190;BME280;51777;53.570;9.984;2022-10-22T05:52:56;100825.13;;;12.99;100.00
65190;BME280;51777;53.570;9.984;2022-10-22T05:55:21;100832.91;;;12.99;100.00
65190;BME280;51777;53.570;9.984;2022-10-22T05:57:47;100830.31;;;12.99;100.00
65190;BME280;51777;53.570;9.984;2022-10-22T06:00:15;100829.69;;;12.97;100.00
65190;BME280;51777;53.570;9.984;2022-10-22T06:02:40;100833.25;;;12.96;100.00
65190;BME280;51777;53.570;9.984;2022-10-22T06:05:06;100828.06;;;12.96;100.00
65190;BME280;51777;53.570;9.984;2022-10-22T06:07:31;100831.63;;;12.94;100.00
65190;BME280;51777;53.570;9.984;2022-10-22T06:09:58;100832.44;;;12.95;100.00
65190;BME280;51777;53.570;9.984;2022-10-22T06:12:24;100838.44;;;12.96;100.00
65190;BME280;51777;53.570;9.984;2022-10-22T06:14:49;100843.47;;;12.97;100.00
65190;BME280;51777;53.570;9.984;2022-10-22T06:17:15;100840.06;;;12.97;100.00
65190;BME280;51777;53.570;9.984;2022-10-22T06:19:41;100839.25;;;12.96;100.00
65190;BME280;51777;53.570;9.984;2022-10-22T06:22:06;100843.47;;;12.97;100.00
65190;BME280;51777;53.570;9.984;2022-10-22T06:24:32;100843.63;;;12.96;100.00
65190;BME280;51777;53.570;9.984;2022-10-22T06:26:57;100836.66;;;12.96;100.00
65190;BME280;51777;53.570;9.984;2022-10-22T06:29:22;100846.88;;;12.98;100.00
65190;BME280;51777;53.570;9.984;2022-10-22T06:31:48;100842.50;;;12.98;100.00
65190;BME280;51777;53.570;9.984;2022-10-22T06:34:14;100843.31;;;12.99;100.00
65190;BME280;51777;53.570;9.984;2022-10-22T06:36:40;100845.72;;;13.00;100.00
65190;BME280;51777;53.570;9.984;2022-10-22T06:39:08;100847.34;;;13.01;100.00
65190;BME280;51777;53.570;9.984;2022-10-22T06:41:35;100845.13;;;13.06;100.00
65190;BME280;51777;53.570;9.984;2022-10-22T06:44:00;100852.56;;;13.09;100.00
65190;BME280;51777;53.570;9.984;2022-10-22T06:46:25;100861.00;;;13.11;100.00
65190;BME280;51777;53.570;9.984;2022-10-22T06:48:56;100859.88;;;13.14;100.00
65190;BME280;51777;53.570;9.984;2022-10-22T06:51:23;100862.47;;;13.14;100.00
65190;BME280;51777;53.570;9.984;2022-10-22T06:53:49;100869.00;;;13.18;100.00
65190;BME280;51777;53.570;9.984;2022-10-22T06:56:18;100874.72;;;13.21;100.00
65190;BME280;51777;53.570;9.984;2022-10-22T06:58:46;100878.59;;;13.26;100.00
65190;BME280;51777;53.570;9.984;2022-10-22T07:01:13;100881.88;;;13.28;100.00
65190;BME280;51777;53.570;9.984;2022-10-22T07:03:40;100885.94;;;13.30;100.00
65190;BME280;51777;53.570;9.984;2022-10-22T07:06:10;100888.84;;;13.35;100.00
65190;BME280;51777;53.570;9.984;2022-10-22T07:08:37;100885.28;;;13.36;100.00
65190;BME280;51777;53.570;9.984;2022-10-22T07:11:08;100888.38;;;13.40;100.00
65190;BME280;51777;53.570;9.984;2022-10-22T07:13:34;100898.28;;;13.44;100.00
65190;BME280;51777;53.570;9.984;2022-10-22T07:16:00;100898.78;;;13.48;100.00
65190;BME280;51777;53.570;9.984;2022-10-22T07:18:26;100905.44;;;13.50;100.00
65190;BME280;51777;53.570;9.984;2022-10-22T07:20:51;100905.13;;;13.54;100.00
65190;BME280;51777;53.570;9.984;2022-10-22T07:23:18;100905.28;;;13.60;100.00
65190;BME280;51777;53.570;9.984;2022-10-22T07:25:43;100904.94;;;13.63;100.00
65190;BME280;51777;53.570;9.984;2022-10-22T07:28:09;100898.66;;;13.66;100.00
65190;BME280;51777;53.570;9.984;2022-10-22T07:30:36;100908.03;;;13.75;100.00
65190;BME280;51777;53.570;9.984;2022-10-22T07:33:01;100906.94;;;13.77;100.00
65190;BME280;51777;53.570;9.984;2022-10-22T07:35:27;100912.63;;;13.81;100.00
65190;BME280;51777;53.570;9.984;2022-10-22T07:37:52;100904.31;;;13.86;100.00
65190;BME280;51777;53.570;9.984;2022-10-22T07:40:17;100923.84;;;13.90;100.00
65190;BME280;51777;53.570;9.984;2022-10-22T07:42:43;100912.59;;;13.97;100.00
65190;BME280;51777;53.570;9.984;2022-10-22T07:45:08;100924.00;;;14.04;100.00
65190;BME280;51777;53.570;9.984;2022-10-22T07:47:34;100926.91;;;14.18;100.00
65190;BME280;51777;53.570;9.984;2022-10-22T07:49:59;100932.06;;;14.42;100.00
65190;BME280;51777;53.570;9.984;2022-10-22T07:52:26;100943.34;;;15.83;100.00
65190;BME280;51777;53.570;9.984;2022-10-22T07:54:51;100943.63;;;16.26;100.00
65190;BME280;51777;53.570;9.984;2022-10-22T07:57:17;100956.00;;;16.09;100.00
65190;BME280;51777;53.570;9.984;2022-10-22T07:59:42;100955.94;;;17.71;100.00
65190;BME280;51777;53.570;9.984;2022-10-22T08:02:08;100960.34;;;19.17;100.00
65190;BME280;51777;53.570;9.984;2022-10-22T08:04:34;100965.19;;;20.34;100.00
65190;BME280;51777;53.570;9.984;2022-10-22T08:06:59;100970.03;;;21.15;100.00
65190;BME280;51777;53.570;9.984;2022-10-22T08:09:25;100972.00;;;21.71;98.19
65190;BME280;51777;53.570;9.984;2022-10-22T08:11:50;100968.88;;;21.49;98.60
65190;BME280;51777;53.570;9.984;2022-10-22T08:14:15;100966.69;;;20.88;100.00
65190;BME280;51777;53.570;9.984;2022-10-22T08:16:41;100968.44;;;20.23;100.00
65190;BME280;51777;53.570;9.984;2022-10-22T08:19:06;100973.88;;;20.08;100.00
65190;BME280;51777;53.570;9.984;2022-10-22T08:21:31;100974.88;;;19.94;100.00
65190;BME280;51777;53.570;9.984;2022-10-22T08:23:57;100979.13;;;19.88;100.00
65190;BME280;51777;53.570;9.984;2022-10-22T08:26:22;100974.47;;;20.17;100.00
65190;BME280;51777;53.570;9.984;2022-10-22T08:28:47;100983.19;;;20.24;100.00
65190;BME280;51777;53.570;9.984;2022-10-22T08:31:13;100980.75;;;20.42;100.00
65190;BME280;51777;53.570;9.984;2022-10-22T08:33:39;100990.75;;;20.92;100.00
65190;BME280;51777;53.570;9.984;2022-10-22T08:36:05;100997.03;;;20.91;100.00
65190;BME280;51777;53.570;9.984;2022-10-22T08:38:31;100997.13;;;20.51;99.94
65190;BME280;51777;53.570;9.984;2022-10-22T08:41:05;101001.72;;;20.69;100.00
65190;BME280;51777;53.570;9.984;2022-10-22T08:49:29;100997.84;;;19.11;100.00
65190;BME280;51777;53.570;9.984;2022-10-22T08:51:57;100995.53;;;18.95;100.00
65190;BME280;51777;53.570;9.984;2022-10-22T08:54:36;100991.69;;;18.91;100.00
65190;BME280;51777;53.570;9.984;2022-10-22T08:59:43;100996.88;;;18.49;100.00
65190;BME280;51777;53.570;9.984;2022-10-22T09:05:16;101005.94;;;17.83;100.00
65190;BME280;51777;53.570;9.984;2022-10-22T09:07:46;101003.38;;;17.68;100.00
65190;BME280;51777;53.570;9.984;2022-10-22T09:10:16;101002.47;;;17.76;100.00
65190;BME280;51777;53.570;9.984;2022-10-22T09:12:42;101003.09;;;17.78;100.00
65190;BME280;51777;53.570;9.984;2022-10-22T09:15:15;101002.47;;;17.76;100.00
65190;BME280;51777;53.570;9.984;2022-10-22T09:25:48;101004.22;;;18.11;100.00
65190;BME280;51777;53.570;9.984;2022-10-22T09:28:15;100997.06;;;17.99;100.00
65190;BME280;51777;53.570;9.984;2022-10-22T09:30:41;101006.38;;;18.08;100.00
65190;BME280;51777;53.570;9.984;2022-10-22T09:36:00;101001.91;;;18.23;100.00
65190;BME280;51777;53.570;9.984;2022-10-22T09:38:38;101004.56;;;18.30;100.00
65190;BME280;51777;53.570;9.984;2022-10-22T09:41:05;101000.94;;;18.31;100.00
65190;BME280;51777;53.570;9.984;2022-10-22T09:43:31;101001.81;;;18.38;100.00
65190;BME280;51777;53.570;9.984;2022-10-22T09:45:59;101012.53;;;18.43;100.00
65190;BME280;51777;53.570;9.984;2022-10-22T09:51:13;101015.41;;;18.27;100.00
65190;BME280;51777;53.570;9.984;2022-10-22T09:53:45;101008.81;;;18.31;100.00
65190;BME280;51777;53.570;9.984;2022-10-22T09:56:20;101020.50;;;18.35;100.00
65190;BME280;51777;53.570;9.984;2022-10-22T09:58:48;101016.00;;;18.50;100.00
65190;BME280;51777;53.570;9.984;2022-10-22T10:01:18;101018.72;;;18.63;100.00
65190;BME280;51777;53.570;9.984;2022-10-22T10:03:44;101010.38;;;18.74;100.00
65190;BME280;51777;53.570;9.984;2022-10-22T10:06:09;101010.19;;;18.83;100.00
65190;BME280;51777;53.570;9.984;2022-10-22T10:08:34;101012.84;;;18.89;100.00
65190;BME280;51777;53.570;9.984;2022-10-22T10:11:10;101011.50;;;19.00;100.00
65190;BME280;51777;53.570;9.984;2022-10-22T10:19:28;101022.13;;;19.26;100.00
65190;BME280;51777;53.570;9.984;2022-10-22T10:25:13;101023.16;;;19.39;100.00
65190;BME280;51777;53.570;9.984;2022-10-22T10:27:50;101018.53;;;19.41;100.00
65190;BME280;51777;53.570;9.984;2022-10-22T10:30:20;101015.72;;;19.42;100.00
65190;BME280;51777;53.570;9.984;2022-10-22T10:33:04;101009.44;;;19.36;100.00
65190;BME280;51777;53.570;9.984;2022-10-22T10:35:54;101004.97;;;19.30;100.00
65190;BME280;51777;53.570;9.984;2022-10-22T10:49:30;101006.13;;;19.21;100.00
65190;BME280;51777;53.570;9.984;2022-10-22T11:00:10;101016.06;;;19.32;100.00
65190;BME280;51777;53.570;9.984;2022-10-22T11:05:47;101011.66;;;19.40;100.00
65190;BME280;51777;53.570;9.984;2022-10-22T11:13:25;101010.72;;;19.54;98.66
65190;BME280;51777;53.570;9.984;2022-10-22T11:21:38;101023.31;;;19.78;95.59
65190;BME280;51777;53.570;9.984;2022-10-22T11:24:23;101022.53;;;20.04;94.86
65190;BME280;51777;53.570;9.984;2022-10-22T11:27:06;101020.31;;;20.21;93.29
65190;BME280;51777;53.570;9.984;2022-10-22T11:29:39;101022.56;;;20.44;92.43
65190;BME280;51777;53.570;9.984;2022-10-22T11:32:21;101022.31;;;20.85;92.17
65190;BME280;51777;53.570;9.984;2022-10-22T11:34:50;101018.94;;;21.29;90.93
65190;BME280;51777;53.570;9.984;2022-10-22T11:37:19;101021.50;;;21.49;89.20
65190;BME280;51777;53.570;9.984;2022-10-22T11:39:54;101022.47;;;21.55;87.12
65190;BME280;51777;53.570;9.984;2022-10-22T11:42:36;101008.59;;;21.41;86.44
65190;BME280;51777;53.570;9.984;2022-10-22T11:45:04;101021.72;;;21.48;87.55
65190;BME280;51777;53.570;9.984;2022-10-22T11:47:41;101023.41;;;21.35;87.67
65190;BME280;51777;53.570;9.984;2022-10-22T12:19:17;101009.44;;;20.24;98.48
65190;BME280;51777;53.570;9.984;2022-10-22T12:21:58;101009.63;;;20.29;98.42
65190;BME280;51777;53.570;9.984;2022-10-22T12:24:37;101023.38;;;20.38;97.54
65190;BME280;51777;53.570;9.984;2022-10-22T12:27:21;101018.94;;;20.25;98.15
65190;BME280;51777;53.570;9.984;2022-10-22T12:29:48;101023.16;;;20.13;100.00
65190;BME280;51777;53.570;9.984;2022-10-22T12:32:15;101024.53;;;19.95;100.00
65190;BME280;51777;53.570;9.984;2022-10-22T12:35:06;101025.97;;;19.85;100.00
65190;BME280;51777;53.570;9.984;2022-10-22T12:37:35;101026.31;;;19.62;100.00
65190;BME280;51777;53.570;9.984;2022-10-22T12:40:24;101020.03;;;19.56;100.00
65190;BME280;51777;53.570;9.984;2022-10-22T12:42:52;101022.28;;;19.66;100.00
65190;BME280;51777;53.570;9.984;2022-10-22T12:45:19;101025.06;;;19.58;100.00
65190;BME280;51777;53.570;9.984;2022-10-22T12:47:46;101022.22;;;19.53;100.00
65190;BME280;51777;53.570;9.984;2022-10-22T12:50:21;101028.22;;;19.47;100.00
65190;BME280;51777;53.570;9.984;2022-10-22T12:52:47;101023.28;;;19.65;100.00
65190;BME280;51777;53.570;9.984;2022-10-22T12:55:21;101026.13;;;19.83;100.00
65190;BME280;51777;53.570;9.984;2022-10-22T12:57:50;101037.06;;;19.87;100.00
65190;BME280;51777;53.570;9.984;2022-10-22T13:00:22;101035.00;;;19.82;100.00
65190;BME280;51777;53.570;9.984;2022-10-22T13:02:49;101030.34;;;19.64;100.00
65190;BME280;51777;53.570;9.984;2022-10-22T13:05:25;101030.56;;;19.76;100.00
65190;BME280;51777;53.570;9.984;2022-10-22T13:08:15;101039.09;;;20.05;100.00
65190;BME280;51777;53.570;9.984;2022-10-22T13:10:51;101037.06;;;19.87;100.00
65190;BME280;51777;53.570;9.984;2022-10-22T13:13:39;101034.41;;;19.80;100.00
65190;BME280;51777;53.570;9.984;2022-10-22T13:16:35;101042.28;;;19.74;100.00
65190;BME280;51777;53.570;9.984;2022-10-22T13:19:03;101043.13;;;19.94;100.00
65190;BME280;51777;53.570;9.984;2022-10-22T13:21:36;101041.88;;;19.83;100.00
65190;BME280;51777;53.570;9.984;2022-10-22T13:24:18;101037.13;;;19.52;100.00
65190;BME280;51777;53.570;9.984;2022-10-22T13:26:51;101036.56;;;19.57;100.00
65190;BME280;51777;53.570;9.984;2022-10-22T13:29:21;101030.97;;;19.73;100.00
65190;BME280;51777;53.570;9.984;2022-10-22T13:31:49;101039.03;;;19.72;100.00
65190;BME280;51777;53.570;9.984;2022-10-22T13:34:18;101038.59;;;19.55;100.00
65190;BME280;51777;53.570;9.984;2022-10-22T13:36:44;101031.69;;;19.54;100.00
65190;BME280;51777;53.570;9.984;2022-10-22T13:39:22;101031.34;;;19.63;100.00
65190;BME280;51777;53.570;9.984;2022-10-22T13:41:48;101036.25;;;19.86;100.00
65190;BME280;51777;53.570;9.984;2022-10-22T13:44:17;101030.19;;;19.86;100.00
65190;BME280;51777;53.570;9.984;2022-10-22T13:46:43;101029.75;;;19.82;100.00
65190;BME280;51777;53.570;9.984;2022-10-22T13:49:14;101027.94;;;19.63;100.00
65190;BME280;51777;53.570;9.984;2022-10-22T13:51:41;101030.34;;;19.64;100.00
65190;BME280;51777;53.570;9.984;2022-10-22T13:54:17;101031.03;;;19.45;100.00
65190;BME280;51777;53.570;9.984;2022-10-22T13:56:43;101027.81;;;19.36;100.00
65190;BME280;51777;53.570;9.984;2022-10-22T13:59:10;101023.31;;;19.24;100.00
65190;BME280;51777;53.570;9.984;2022-10-22T14:01:36;101019.44;;;19.13;100.00
65190;BME280;51777;53.570;9.984;2022-10-22T14:04:04;101025.44;;;19.07;100.00
65190;BME280;51777;53.570;9.984;2022-10-22T14:06:31;101023.06;;;19.12;100.00
65190;BME280;51777;53.570;9.984;2022-10-22T14:09:03;101025.22;;;19.02;100.00
65190;BME280;51777;53.570;9.984;2022-10-22T14:11:29;101029.06;;;19.06;100.00
65190;BME280;51777;53.570;9.984;2022-10-22T14:13:57;101037.19;;;19.18;100.00
65190;BME280;51777;53.570;9.984;2022-10-22T14:16:24;101034.88;;;19.43;100.00
65190;BME280;51777;53.570;9.984;2022-10-22T14:18:51;101026.03;;;19.50;100.00
65190;BME280;51777;53.570;9.984;2022-10-22T14:21:17;101034.75;;;19.57;99.09
65190;BME280;51777;53.570;9.984;2022-10-22T14:23:45;101030.09;;;19.59;99.24
65190;BME280;51777;53.570;9.984;2022-10-22T14:26:21;101029.88;;;19.54;99.38
65190;BME280;51777;53.570;9.984;2022-10-22T14:28:47;101034.44;;;19.32;99.79
65190;BME280;51777;53.570;9.984;2022-10-22T14:31:13;101032.25;;;19.43;100.00
65190;BME280;51777;53.570;9.984;2022-10-22T14:33:39;101039.31;;;19.42;100.00
65190;BME280;51777;53.570;9.984;2022-10-22T14:36:04;101034.56;;;19.18;100.00
65190;BME280;51777;53.570;9.984;2022-10-22T14:38:30;101027.22;;;19.00;100.00
65190;BME280;51777;53.570;9.984;2022-10-22T14:40:56;101032.94;;;18.75;100.00
65190;BME280;51777;53.570;9.984;2022-10-22T14:43:26;101037.97;;;18.77;100.00
65190;BME280;51777;53.570;9.984;2022-10-22T14:45:52;101026.03;;;18.68;100.00